Time;durP1;ratioP1;P1;durP2;ratioP2;P2;SDS_P1;SDS_P2;PMS_P1;PMS_P2;Temp;Humidity;BMP_temperature;BMP_pressure;BME280_temperature;BME280_humidity;BME280_pressure;Samples;Min_cycle;Max_cycle;Signal;HPM_P1;HPM_P2
2021/12/17 00:01:13;;;;;;;26.53;5.83;;;;;;;12.90;nan;101854.94;4906746;29;20463;-88
2021/12/17 00:03:48;;;;;;;23.40;4.43;;;;;;;12.89;nan;101850.50;4922635;29;20931;-89
2021/12/17 00:06:40;;;;;;;22.53;4.37;;;;;;;12.89;nan;101846.91;4907483;29;20448;-89
2021/12/17 00:13:27;;;;;;;15.30;4.37;;;;;;;13.01;nan;101851.78;4939149;29;20505;-89
2021/12/17 00:15:57;;;;;;;17.10;4.10;;;;;;;12.98;nan;101840.31;4906972;29;20462;-91
2021/12/17 00:58:43;;;;;;;17.63;3.10;;;;;;;12.45;nan;101820.09;4919480;29;20393;-90
2021/12/17 01:05:43;;;;;;;16.87;3.30;;;;;;;12.48;nan;101833.44;4918582;29;20396;-89
2021/12/17 01:11:59;;;;;;;10.10;2.60;;;;;;;12.30;nan;101813.66;4919061;29;20451;-90
2021/12/17 01:14:29;;;;;;;15.23;2.80;;;;;;;12.34;nan;101812.25;4827716;29;20460;-91
2021/12/17 01:16:57;;;;;;;11.93;2.80;;;;;;;12.37;nan;101820.97;4827687;29;20468;-90
2021/12/17 01:22:13;;;;;;;19.47;3.63;;;;;;;12.31;nan;101821.72;4842331;29;20964;-91
2021/12/17 01:24:51;;;;;;;9.97;2.87;;;;;;;12.33;nan;101822.34;4842405;29;20479;-90
2021/12/17 01:36:32;;;;;;;13.70;2.97;;;;;;;12.28;nan;101835.78;4929121;29;20996;-90
2021/12/17 01:43:36;;;;;;;23.53;4.57;;;;;;;12.27;nan;101834.06;4956988;29;20432;-89
2021/12/17 01:46:05;;;;;;;12.63;2.63;;;;;;;12.20;nan;101824.81;4940027;29;20451;-89
2021/12/17 02:01:05;;;;;;;10.20;2.90;;;;;;;12.20;nan;101823.97;4923851;29;20455;-91
2021/12/17 02:03:35;;;;;;;14.97;3.10;;;;;;;12.24;nan;101828.94;4940103;29;20538;-91
2021/12/17 02:23:22;;;;;;;10.23;2.93;;;;;;;12.34;nan;101831.44;4956519;29;20426;-91
2021/12/17 02:30:37;;;;;;;17.83;3.13;;;;;;;12.24;nan;101808.88;4956620;29;20394;-89
2021/12/17 02:32:22;;;;;;;13.93;3.27;;;;;;;12.34;nan;101826.81;4938710;29;20477;-90
2021/12/17 02:55:12;;;;;;;11.80;2.90;;;;;;;12.30;nan;101820.00;4899975;29;20424;-91
2021/12/17 03:01:24;;;;;;;16.30;3.40;;;;;;;12.32;nan;101817.06;4955681;29;20422;-90
2021/12/17 03:07:36;;;;;;;20.17;3.20;;;;;;;12.29;nan;101810.06;4955685;29;20402;-89
2021/12/17 03:13:51;;;;;;;12.50;2.90;;;;;;;12.35;nan;101814.81;4955492;29;20984;-89
2021/12/17 03:16:30;;;;;;;18.07;3.30;;;;;;;12.45;nan;101823.69;4908097;29;20892;-90
2021/12/17 03:19:08;;;;;;;18.50;2.70;;;;;;;12.48;nan;101821.63;4924114;29;20450;-90
2021/12/17 03:40:26;;;;;;;9.20;2.43;;;;;;;12.56;nan;101818.81;4940136;29;20806;-89
2021/12/17 03:43:01;;;;;;;14.07;2.77;;;;;;;12.57;nan;101815.03;4922621;29;20455;-89
2021/12/17 03:49:41;;;;;;;18.13;2.80;;;;;;;12.58;nan;101823.09;4939705;29;20784;-89
2021/12/17 03:52:08;;;;;;;12.60;3.03;;;;;;;12.55;nan;101822.59;4907504;29;20994;-90
2021/12/17 03:54:36;;;;;;;22.17;3.80;;;;;;;12.53;nan;101819.16;4907468;29;20456;-90
2021/12/17 03:57:07;;;;;;;22.73;4.33;;;;;;;12.50;nan;101814.06;4891894;29;20455;-90
2021/12/17 03:59:35;;;;;;;9.97;2.60;;;;;;;12.52;nan;101807.34;4908167;29;20456;-90
2021/12/17 04:02:03;;;;;;;11.00;2.50;;;;;;;12.48;nan;101817.00;4907100;29;20451;-90
2021/12/17 04:04:31;;;;;;;11.50;2.20;;;;;;;12.52;nan;101817.47;4906821;29;20456;-90
2021/12/17 04:11:32;;;;;;;12.93;2.90;;;;;;;12.50;nan;101825.91;4939172;29;20443;-89
2021/12/17 04:17:55;;;;;;;13.60;2.60;;;;;;;12.47;nan;101814.44;4939319;29;20436;-90
2021/12/17 04:20:22;;;;;;;10.37;3.20;;;;;;;12.40;nan;101809.66;4892584;29;20808;-90
2021/12/17 04:26:37;;;;;;;23.17;3.10;;;;;;;12.41;nan;101794.06;4939157;29;20391;-90
2021/12/17 04:29:06;;;;;;;8.47;2.57;;;;;;;12.40;nan;101795.94;4906888;29;20444;-90
2021/12/17 04:31:34;;;;;;;13.57;3.20;;;;;;;12.45;nan;101801.75;4922056;29;20492;-90
2021/12/17 04:34:03;;;;;;;16.80;2.90;;;;;;;12.50;nan;101814.94;4913762;29;20471;-90
2021/12/17 04:41:36;;;;;;;11.20;3.47;;;;;;;12.38;nan;101775.22;4957981;29;20443;-90
2021/12/17 04:44:18;;;;;;;12.63;2.57;;;;;;;12.52;nan;101804.59;4947298;29;20472;-89
2021/12/17 04:46:54;;;;;;;11.03;2.90;;;;;;;12.57;nan;101810.41;4911361;29;20543;-89
2021/12/17 04:59:03;;;;;;;9.70;2.63;;;;;;;12.58;nan;101808.53;4943709;29;20509;-89
2021/12/17 05:01:31;;;;;;;11.93;2.83;;;;;;;12.60;nan;101810.06;4909803;29;20482;-89
2021/12/17 05:03:58;;;;;;;10.87;2.63;;;;;;;12.58;nan;101801.16;4924685;29;20956;-88
2021/12/17 05:10:30;;;;;;;11.27;2.60;;;;;;;12.61;nan;101816.41;4957136;29;20399;-88
2021/12/17 05:18:17;;;;;;;12.40;2.40;;;;;;;12.62;nan;101829.06;4957100;29;20450;-90
2021/12/17 05:19:45;;;;;;;16.53;3.53;;;;;;;12.63;nan;101830.78;4931528;29;20450;-89
2021/12/17 05:22:14;;;;;;;8.83;2.40;;;;;;;12.61;nan;101832.84;4926051;29;20449;-90
2021/12/17 05:24:44;;;;;;;10.47;1.93;;;;;;;12.60;nan;101817.44;4908814;29;20443;-90
2021/12/17 05:27:12;;;;;;;11.63;2.70;;;;;;;12.60;nan;101821.03;4940100;29;20462;-90
2021/12/17 05:33:27;;;;;;;13.30;2.97;;;;;;;12.53;nan;101819.16;4955004;29;20901;-91
2021/12/17 05:35:56;;;;;;;12.90;2.50;;;;;;;12.58;nan;101827.72;4905911;29;20444;-91
2021/12/17 05:38:26;;;;;;;15.10;3.30;;;;;;;12.56;nan;101818.81;4890279;29;20512;-91
2021/12/17 05:40:54;;;;;;;13.23;2.90;;;;;;;12.55;nan;101819.84;4890485;29;20474;-90
2021/12/17 05:43:22;;;;;;;13.40;2.33;;;;;;;12.55;nan;101822.59;4905573;29;20447;-90
2021/12/17 05:52:48;;;;;;;14.70;2.87;;;;;;;12.60;nan;101837.47;4937358;29;20507;-90
2021/12/17 05:55:15;;;;;;;12.00;3.50;;;;;;;12.56;nan;101838.00;4920175;29;20463;-90
2021/12/17 05:57:45;;;;;;;10.13;2.60;;;;;;;12.59;nan;101840.41;4904644;29;20456;-89
2021/12/17 06:00:16;;;;;;;5.10;2.10;;;;;;;12.59;nan;101840.41;4920873;29;20448;-89
2021/12/17 06:02:46;;;;;;;12.80;2.80;;;;;;;12.58;nan;101844.19;4920350;29;20511;-89
2021/12/17 06:09:07;;;;;;;11.80;2.00;;;;;;;12.65;nan;101845.16;4937221;29;20465;-90
2021/12/17 06:11:36;;;;;;;10.27;2.77;;;;;;;12.66;nan;101855.13;4905021;29;20490;-90
2021/12/17 06:22:19;;;;;;;9.13;2.20;;;;;;;12.69;nan;101857.50;4918076;29;20481;-89
2021/12/17 06:36:11;;;;;;;13.60;2.70;;;;;;;12.58;nan;101856.00;4954679;28;20527;-91
2021/12/17 06:38:39;;;;;;;12.53;2.37;;;;;;;12.63;nan;101863.69;4904787;29;20463;-91
2021/12/17 06:41:07;;;;;;;11.40;2.40;;;;;;;12.62;nan;101862.84;4904832;29;20448;-91
2021/12/17 06:43:39;;;;;;;11.20;2.30;;;;;;;12.64;nan;101860.78;4889886;29;20475;-91
2021/12/17 07:18:50;;;;;;;15.40;2.77;;;;;;;12.60;nan;101866.78;4868741;29;20438;-89
2021/12/17 07:35:24;;;;;;;7.77;2.23;;;;;;;12.62;nan;101878.44;4832433;29;20459;-88
2021/12/17 07:40:38;;;;;;;13.43;3.33;;;;;;;12.64;nan;101881.88;4875881;29;20457;-89
2021/12/17 07:43:25;;;;;;;19.80;2.80;;;;;;;12.67;nan;101904.31;4832033;29;20455;-88
2021/12/17 07:45:54;;;;;;;9.87;2.63;;;;;;;12.64;nan;101896.44;4816073;29;20478;-89
2021/12/17 07:48:22;;;;;;;9.40;2.40;;;;;;;12.70;nan;101903.91;4830385;29;20459;-88
2021/12/17 07:50:49;;;;;;;14.23;3.00;;;;;;;12.78;nan;101914.88;4847091;29;20459;-89
2021/12/17 07:53:18;;;;;;;9.90;1.97;;;;;;;12.76;nan;101910.59;4847365;29;20459;-89
2021/12/17 07:55:46;;;;;;;11.47;2.63;;;;;;;12.80;nan;101906.47;4847227;29;20451;-88
2021/12/17 07:58:14;;;;;;;15.83;2.97;;;;;;;12.82;nan;101909.03;4847144;29;21078;-89
2021/12/17 08:00:42;;;;;;;9.37;2.40;;;;;;;12.84;nan;101916.03;4851512;29;20960;-89
2021/12/17 08:03:12;;;;;;;9.00;2.10;;;;;;;12.83;nan;101906.09;4906762;29;20459;-88
2021/12/17 08:06:05;;;;;;;11.93;2.83;;;;;;;12.90;nan;101919.94;4907646;29;20946;-91
2021/12/17 08:09:09;;;;;;;7.30;2.13;;;;;;;12.91;nan;101922.50;4926262;29;20455;-95
2021/12/17 08:11:41;;;;;;;8.43;1.93;;;;;;;12.89;nan;101916.38;4931517;29;20982;-96
2021/12/17 08:14:17;;;;;;;12.13;2.40;;;;;;;12.85;nan;101900.44;4916519;29;20478;-89
2021/12/17 08:29:23;;;;;;;9.27;2.37;;;;;;;13.27;nan;101938.47;4940038;29;20503;-92
2021/12/17 08:31:49;;;;;;;11.80;2.70;;;;;;;13.28;nan;101940.13;4952912;29;20465;-92
2021/12/17 08:34:17;;;;;;;10.27;2.20;;;;;;;13.32;nan;101933.25;4917779;29;20432;-91
2021/12/17 08:36:46;;;;;;;8.80;2.40;;;;;;;13.31;nan;101929.66;4908195;29;20483;-93
2021/12/17 08:39:14;;;;;;;7.13;2.30;;;;;;;13.36;nan;101931.84;4907619;29;20483;-92
2021/12/17 08:41:43;;;;;;;14.20;2.03;;;;;;;13.39;nan;101936.97;4907604;29;20468;-95
2021/12/17 08:44:12;;;;;;;19.50;2.60;;;;;;;13.41;nan;101934.91;4907240;29;20452;-94
2021/12/17 08:46:59;;;;;;;12.13;2.33;;;;;;;13.49;nan;101937.56;4924219;29;20539;-94
2021/12/17 08:49:27;;;;;;;17.17;3.20;;;;;;;13.48;nan;101930.38;4922378;29;20471;-92
2021/12/17 08:52:00;;;;;;;11.23;2.37;;;;;;;13.60;nan;101930.81;4923044;29;20488;-93
2021/12/17 08:54:28;;;;;;;8.57;2.40;;;;;;;13.66;nan;101930.91;4907148;29;20507;-95
2021/12/17 08:56:56;;;;;;;9.00;2.33;;;;;;;13.72;nan;101935.66;4907152;29;20934;-94
2021/12/17 08:59:24;;;;;;;8.80;1.57;;;;;;;13.64;nan;101924.78;4907346;29;20470;-92
2021/12/17 09:01:52;;;;;;;13.70;2.30;;;;;;;13.72;nan;101935.66;4923336;29;20464;-92
2021/12/17 09:04:27;;;;;;;12.77;3.20;;;;;;;13.68;nan;101930.72;4907997;29;20464;-95
2021/12/17 09:06:58;;;;;;;8.10;2.70;;;;;;;13.74;nan;101941.84;4922837;29;20464;-92
2021/12/17 09:09:27;;;;;;;12.07;2.53;;;;;;;13.72;nan;101938.41;4906424;29;20458;-93
2021/12/17 09:11:56;;;;;;;15.57;3.60;;;;;;;13.81;nan;101952.94;4920503;29;20479;-92
2021/12/17 09:14:23;;;;;;;19.57;3.83;;;;;;;13.81;nan;101956.56;4906524;29;20464;-93
2021/12/17 09:16:51;;;;;;;17.70;4.70;;;;;;;13.89;nan;101955.59;4906660;29;20452;-92
2021/12/17 09:19:20;;;;;;;13.60;3.93;;;;;;;13.97;nan;101951.94;4906353;29;20808;-93
2021/12/17 09:21:50;;;;;;;13.27;2.53;;;;;;;14.15;nan;101978.03;4907585;29;20445;-94
2021/12/17 09:24:27;;;;;;;11.37;3.67;;;;;;;14.18;nan;101971.31;4908666;29;20456;-94
2021/12/17 09:26:55;;;;;;;24.57;7.90;;;;;;;14.19;nan;101962.03;4906059;29;20456;-95
2021/12/17 09:29:27;;;;;;;18.10;4.47;;;;;;;14.25;nan;101966.75;4906856;29;20470;-94
2021/12/17 09:31:54;;;;;;;14.30;3.00;;;;;;;14.29;nan;101959.00;4906225;29;20491;-95
2021/12/17 09:34:36;;;;;;;19.50;4.00;;;;;;;14.35;nan;101975.59;4910279;29;20847;-94
2021/12/17 09:37:06;;;;;;;25.80;3.50;;;;;;;14.37;nan;101972.66;4906350;29;20479;-94
2021/12/17 09:39:35;;;;;;;16.50;3.70;;;;;;;14.52;nan;101981.81;4921626;29;20460;-95
2021/12/17 09:42:05;;;;;;;27.37;5.63;;;;;;;14.66;nan;101975.44;4906012;29;20456;-95
2021/12/17 09:44:33;;;;;;;14.63;3.90;;;;;;;14.77;nan;101972.22;4906173;29;20479;-95
2021/12/17 09:47:02;;;;;;;19.63;4.80;;;;;;;14.98;nan;101989.84;4906947;29;20813;-93
2021/12/17 09:49:30;;;;;;;22.27;4.73;;;;;;;15.08;nan;101988.50;4921999;29;20604;-95
2021/12/17 09:52:21;;;;;;;22.30;5.13;;;;;;;15.19;nan;101990.75;4908627;29;20480;-92
2021/12/17 09:54:51;;;;;;;16.57;3.83;;;;;;;15.17;nan;101970.81;4922591;29;20546;-94
2021/12/17 09:57:21;;;;;;;24.10;3.37;;;;;;;15.21;nan;101972.13;4905946;29;20969;-94
2021/12/17 09:59:57;;;;;;;14.63;4.53;;;;;;;15.31;nan;101982.84;4905364;29;20460;-94
2021/12/17 10:02:26;;;;;;;20.30;4.57;;;;;;;15.31;nan;101976.47;4906468;29;20798;-93
2021/12/17 10:04:57;;;;;;;29.97;5.57;;;;;;;15.45;nan;101992.09;4905136;29;20473;-93
2021/12/17 10:07:29;;;;;;;23.60;6.30;;;;;;;15.46;nan;101988.28;4905356;29;20817;-92
2021/12/17 10:09:59;;;;;;;17.27;4.37;;;;;;;15.48;nan;101977.94;4905824;29;20985;-94
2021/12/17 10:12:37;;;;;;;17.43;4.40;;;;;;;15.55;nan;101987.13;4920697;29;20484;-94
2021/12/17 10:15:05;;;;;;;41.40;9.40;;;;;;;15.72;nan;102004.28;4921345;29;20455;-93
2021/12/17 10:17:50;;;;;;;19.20;3.83;;;;;;;15.73;nan;101981.19;4920904;29;20467;-93
2021/12/17 10:20:19;;;;;;;17.13;4.13;;;;;;;15.83;nan;101995.47;4905808;29;20923;-94
2021/12/17 10:22:47;;;;;;;20.23;5.03;;;;;;;15.87;nan;101994.91;4904663;29;20464;-94
2021/12/17 10:25:15;;;;;;;8.03;3.10;;;;;;;15.84;nan;101988.91;4904926;29;20502;-93
2021/12/17 10:27:44;;;;;;;22.63;4.13;;;;;;;15.92;nan;101988.78;4905155;29;20466;-94
2021/12/17 10:30:15;;;;;;;17.10;2.60;;;;;;;16.01;nan;102003.28;4920729;29;20463;-95
2021/12/17 10:32:46;;;;;;;10.47;3.60;;;;;;;16.06;nan;102006.28;4905324;29;20483;-94
2021/12/17 10:35:19;;;;;;;14.20;3.30;;;;;;;16.04;nan;102003.72;4904939;29;20467;-93
2021/12/17 10:37:57;;;;;;;15.23;2.30;;;;;;;15.98;nan;101982.47;4920529;29;20483;-95
2021/12/17 10:40:27;;;;;;;12.73;2.93;;;;;;;16.14;nan;102011.69;4905309;29;20483;-94
2021/12/17 10:43:27;;;;;;;14.37;3.00;;;;;;;16.23;nan;102013.22;4905027;29;20467;-94
2021/12/17 10:46:08;;;;;;;12.40;2.87;;;;;;;16.18;nan;102008.28;4906650;29;20451;-95
2021/12/17 11:04:24;;;;;;;20.97;2.90;;;;;;;16.56;nan;102007.94;4937226;29;20457;-94
2021/12/17 11:07:03;;;;;;;14.53;3.07;;;;;;;16.55;nan;102000.72;4906267;29;20946;-95
2021/12/17 11:16:55;;;;;;;12.97;3.27;;;;;;;16.65;nan;101994.88;4936951;29;20810;-94
2021/12/17 11:19:24;;;;;;;18.03;3.27;;;;;;;16.78;nan;101997.69;4904782;29;20452;-96
2021/12/17 11:21:52;;;;;;;8.60;3.13;;;;;;;16.81;nan;101991.78;4905253;29;20440;-95
2021/12/17 11:24:19;;;;;;;25.87;3.47;;;;;;;16.90;nan;101987.78;4904434;29;20464;-95
2021/12/17 11:27:07;;;;;;;19.37;3.50;;;;;;;16.83;nan;101981.38;4905128;29;20484;-95
2021/12/17 11:29:35;;;;;;;10.47;2.90;;;;;;;16.80;nan;101987.31;4904630;29;20459;-95
2021/12/17 11:32:06;;;;;;;22.50;3.17;;;;;;;16.72;nan;101981.97;4904196;29;20483;-95
2021/12/17 11:34:34;;;;;;;15.83;3.87;;;;;;;16.80;nan;101999.19;4904511;29;20459;-94
2021/12/17 11:37:03;;;;;;;25.57;3.53;;;;;;;16.69;nan;101974.09;4904556;29;20475;-95
2021/12/17 11:39:33;;;;;;;15.47;2.47;;;;;;;16.81;nan;101984.34;4904755;29;20460;-95
2021/12/17 11:42:14;;;;;;;12.17;3.40;;;;;;;16.91;nan;101995.88;4904873;29;20448;-95
2021/12/17 11:44:50;;;;;;;16.60;3.20;;;;;;;16.84;nan;101966.50;4919574;29;20475;-96
2021/12/17 11:47:18;;;;;;;20.77;3.90;;;;;;;16.95;nan;101981.63;4905254;29;20519;-94
2021/12/17 11:49:49;;;;;;;19.63;3.90;;;;;;;16.89;nan;101977.81;4907255;29;20452;-95
2021/12/17 11:52:35;;;;;;;14.70;3.00;;;;;;;17.01;nan;101973.38;4907783;29;20479;-94
2021/12/17 11:55:23;;;;;;;12.63;2.97;;;;;;;17.18;nan;101971.97;4922864;29;20471;-95
2021/12/17 11:57:58;;;;;;;12.40;2.80;;;;;;;17.22;nan;101958.59;4924074;29;20456;-95
2021/12/17 12:00:31;;;;;;;14.80;3.70;;;;;;;17.20;nan;101957.94;4907869;29;20465;-95
2021/12/17 12:03:21;;;;;;;17.30;3.23;;;;;;;17.08;nan;101946.66;4907432;29;20462;-95
2021/12/17 12:06:02;;;;;;;12.30;2.60;;;;;;;17.12;nan;101953.47;4907662;29;20522;-95
2021/12/17 12:08:49;;;;;;;16.33;4.77;;;;;;;17.12;nan;101953.47;4908428;29;20942;-96
2021/12/17 12:11:30;;;;;;;18.70;3.80;;;;;;;17.25;nan;101953.50;4922953;29;20466;-95
2021/12/17 12:14:02;;;;;;;22.90;4.33;;;;;;;17.22;nan;101937.34;4908239;29;20491;-95
2021/12/17 12:16:31;;;;;;;21.10;4.80;;;;;;;17.26;nan;101948.81;4923558;29;20471;-96
2021/12/17 12:19:04;;;;;;;13.40;4.20;;;;;;;17.32;nan;101953.50;4907605;29;20466;-95
2021/12/17 12:21:33;;;;;;;13.27;3.03;;;;;;;17.32;nan;101952.69;4923407;29;20519;-95
2021/12/17 12:24:12;;;;;;;18.20;3.40;;;;;;;17.46;nan;101949.72;4907287;29;20463;-95
2021/12/17 12:26:43;;;;;;;14.43;3.73;;;;;;;17.45;nan;101936.13;4907156;29;20470;-96
2021/12/17 12:29:16;;;;;;;21.23;4.00;;;;;;;17.49;nan;101948.47;4907349;29;20471;-95
2021/12/17 12:31:48;;;;;;;19.77;3.73;;;;;;;17.36;nan;101937.34;4907819;29;20463;-95
2021/12/17 12:34:21;;;;;;;22.97;3.90;;;;;;;17.36;nan;101937.34;4907561;29;20494;-94
2021/12/17 12:37:05;;;;;;;19.50;4.00;;;;;;;17.25;nan;101925.88;4910141;29;20479;-95
2021/12/17 12:39:50;;;;;;;14.53;3.50;;;;;;;17.31;nan;101940.78;4922520;29;20845;-95
2021/12/17 12:42:50;;;;;;;19.70;3.90;;;;;;;17.21;nan;101924.56;4923066;29;21059;-95
2021/12/17 12:45:17;;;;;;;23.87;3.90;;;;;;;17.27;nan;101920.13;4922575;29;20446;-95
2021/12/17 12:47:50;;;;;;;14.13;3.40;;;;;;;17.23;nan;101922.47;4907756;29;20466;-95
2021/12/17 12:50:25;;;;;;;15.33;3.93;;;;;;;17.24;nan;101918.63;4907298;29;20464;-96
2021/12/17 12:53:00;;;;;;;23.10;4.00;;;;;;;17.22;nan;101918.00;4922074;29;20543;-96
2021/12/17 12:55:53;;;;;;;29.30;4.87;;;;;;;17.21;nan;101921.81;4921984;29;20470;-94
2021/12/17 12:58:29;;;;;;;18.43;4.27;;;;;;;17.25;nan;101906.53;4922780;29;20459;-96
2021/12/17 13:00:59;;;;;;;13.73;4.27;;;;;;;17.31;nan;101915.06;4922347;29;20444;-96
2021/12/17 13:03:32;;;;;;;20.47;4.80;;;;;;;17.32;nan;101923.09;4847719;29;20823;-96
2021/12/17 13:06:00;;;;;;;19.97;4.40;;;;;;;17.27;nan;101906.31;4846888;29;20467;-96
2021/12/17 13:08:31;;;;;;;28.43;5.37;;;;;;;17.45;nan;101919.53;4832026;29;20487;-96
2021/12/17 13:11:02;;;;;;;22.90;5.20;;;;;;;17.45;nan;101905.72;4832543;29;20463;-96
2021/12/17 13:13:44;;;;;;;303.23;91.60;;;;;;;17.42;nan;101903.38;4778506;29;20539;-96
2021/12/17 13:22:02;;;;;;;40.50;7.83;;;;;;;17.37;nan;101892.94;4785369;29;20454;-96
2021/12/17 13:24:32;;;;;;;31.17;7.30;;;;;;;17.37;nan;101895.69;4781473;29;20572;-96
2021/12/17 13:27:10;;;;;;;29.20;9.20;;;;;;;17.43;nan;101907.84;4781344;29;20466;-96
2021/12/17 13:29:39;;;;;;;28.67;6.40;;;;;;;17.37;nan;101914.19;4835632;29;20882;-96
2021/12/17 13:32:11;;;;;;;39.33;9.53;;;;;;;17.44;nan;101913.16;4872923;29;20464;-96
2021/12/17 13:34:41;;;;;;;34.10;10.70;;;;;;;17.42;nan;101901.44;4906463;29;20452;-96
2021/12/17 13:37:27;;;;;;;35.90;7.83;;;;;;;17.41;nan;101898.91;4892344;29;20479;-96
2021/12/17 13:40:07;;;;;;;45.97;10.47;;;;;;;17.38;nan;101907.59;4874469;29;20465;-96
2021/12/17 13:42:37;;;;;;;39.30;9.93;;;;;;;17.36;nan;101902.28;4876076;29;20532;-96
2021/12/17 13:45:11;;;;;;;34.83;7.03;;;;;;;17.36;nan;101890.38;4885197;29;20457;-93
2021/12/17 13:47:45;;;;;;;45.00;12.27;;;;;;;17.47;nan;101895.31;4895696;29;20479;-95
2021/12/17 13:50:41;;;;;;;37.07;10.70;;;;;;;17.58;nan;101902.94;4872873;29;20999;-96
2021/12/17 13:53:13;;;;;;;36.40;9.67;;;;;;;17.61;nan;101902.53;4918257;29;20480;-96
2021/12/17 13:56:03;;;;;;;45.73;7.80;;;;;;;17.60;nan;101889.78;4893119;29;20437;-96
2021/12/17 13:58:34;;;;;;;34.90;6.83;;;;;;;17.67;nan;101879.59;4888348;29;20461;-96
2021/12/17 14:01:05;;;;;;;34.63;7.27;;;;;;;17.64;nan;101874.50;4857630;29;20445;-96
2021/12/17 14:03:38;;;;;;;29.87;7.40;;;;;;;17.69;nan;101882.16;4871639;29;20460;-96
2021/12/17 14:06:16;;;;;;;52.27;8.20;;;;;;;17.75;nan;101887.66;4816805;29;20526;-96
2021/12/17 14:08:46;;;;;;;25.00;5.17;;;;;;;17.88;nan;101881.28;4831733;29;20459;-96
2021/12/17 14:11:24;;;;;;;36.10;6.10;;;;;;;17.93;nan;101893.41;4830523;29;20475;-96
2021/12/17 14:14:25;;;;;;;36.57;7.13;;;;;;;17.86;nan;101881.50;4847785;29;21018;-96
2021/12/17 14:17:00;;;;;;;36.43;6.17;;;;;;;17.82;nan;101877.47;4815670;29;20475;-96
2021/12/17 14:19:45;;;;;;;28.13;6.67;;;;;;;17.80;nan;101876.81;4830546;29;20505;-96
2021/12/17 14:22:27;;;;;;;36.30;6.50;;;;;;;17.77;nan;101880.00;4831303;29;20467;-96
2021/12/17 14:24:56;;;;;;;33.33;7.70;;;;;;;17.76;nan;101871.94;4808932;29;20519;-96
2021/12/17 14:27:46;;;;;;;48.57;9.13;;;;;;;17.80;nan;101874.06;4830381;29;20528;-96
2021/12/17 14:30:13;;;;;;;28.70;7.07;;;;;;;17.90;nan;101888.28;4830921;29;20830;-96
2021/12/17 14:32:49;;;;;;;30.50;7.20;;;;;;;17.86;nan;101862.16;4831490;29;20524;-96
2021/12/17 14:35:44;;;;;;;23.43;6.33;;;;;;;17.91;nan;101881.69;4831725;29;20974;-96
2021/12/17 14:38:12;;;;;;;32.60;6.83;;;;;;;17.85;nan;101871.50;4870453;29;20455;-96
2021/12/17 14:40:50;;;;;;;34.03;6.90;;;;;;;17.83;nan;101870.00;4848494;29;20879;-96
2021/12/17 14:43:18;;;;;;;34.17;6.73;;;;;;;17.73;nan;101866.81;4873527;29;20457;-96
2021/12/17 15:04:31;;;;;;;39.63;6.60;;;;;;;18.18;nan;101854.00;4918383;29;20475;-96
2021/12/17 15:07:01;;;;;;;36.17;6.33;;;;;;;18.22;nan;101863.56;4870726;29;20464;-95
2021/12/17 15:09:32;;;;;;;33.37;7.23;;;;;;;18.17;nan;101857.81;4901260;29;20456;-94
2021/12/17 15:23:19;;;;;;;40.27;11.60;;;;;;;17.75;nan;101873.00;4918652;29;20765;-94
2021/12/17 15:25:48;;;;;;;36.60;7.93;;;;;;;17.58;nan;101867.00;4904937;29;20467;-95
2021/12/17 15:28:17;;;;;;;34.27;7.63;;;;;;;17.47;nan;101865.75;4874314;29;20461;-95
2021/12/17 15:30:49;;;;;;;30.90;7.77;;;;;;;17.39;nan;101876.13;4889628;29;20943;-94
2021/12/17 15:33:18;;;;;;;32.87;6.07;;;;;;;17.38;nan;101882.72;4889688;29;20484;-94
2021/12/17 15:35:47;;;;;;;31.80;5.50;;;;;;;17.19;nan;101865.91;4904793;29;20479;-93
2021/12/17 15:38:16;;;;;;;28.17;4.77;;;;;;;17.14;nan;101857.41;4891701;29;20536;-94
2021/12/17 15:40:46;;;;;;;48.03;6.50;;;;;;;17.07;nan;101866.75;4875007;29;20453;-95
2021/12/17 15:43:17;;;;;;;33.37;5.70;;;;;;;17.03;nan;101880.13;4893643;29;20464;-95
2021/12/17 15:45:48;;;;;;;43.07;6.00;;;;;;;16.98;nan;101868.84;4894227;29;20465;-95
2021/12/17 15:48:18;;;;;;;37.23;6.53;;;;;;;16.90;nan;101866.28;4889745;29;20448;-95
2021/12/17 15:54:46;;;;;;;39.23;10.17;;;;;;;16.79;nan;101875.16;4921764;29;20447;-96
2021/12/17 15:57:16;;;;;;;30.53;6.43;;;;;;;16.84;nan;101891.97;4873341;29;20472;-96
2021/12/17 15:59:45;;;;;;;40.73;7.77;;;;;;;16.78;nan;101884.50;4873908;29;20455;-95
2021/12/17 16:02:16;;;;;;;38.10;8.30;;;;;;;16.71;nan;101889.16;4889344;29;20496;-95
2021/12/17 16:04:46;;;;;;;35.40;6.70;;;;;;;16.62;nan;101876.53;4889517;29;20464;-95
2021/12/17 21:22:16;;;;;;;58.17;20.63;;;;;;;15.33;100.00;102026.72;4748354;30;20480;-93
2021/12/17 22:12:13;;;;;;;30.57;7.93;;;;;;;15.20;100.00;102047.53;5047313;28;20463;-91
